sensor_id;sensor_type;location;lat;lon;timestamp;temperature;humidity
58513;DHT22;44302;47.914;10.642;2022-09-20T00:03:30;7.60;99.90
58513;DHT22;44302;47.914;10.642;2022-09-20T00:06:00;7.50;99.90
58513;DHT22;44302;47.914;10.642;2022-09-20T00:08:26;7.50;99.90
58513;DHT22;44302;47.914;10.642;2022-09-20T00:10:56;7.50;99.90
58513;DHT22;44302;47.914;10.642;2022-09-20T00:13:22;7.40;99.90
58513;DHT22;44302;47.914;10.642;2022-09-20T00:15:47;7.40;99.90
58513;DHT22;44302;47.914;10.642;2022-09-20T00:18:13;7.40;99.90
58513;DHT22;44302;47.914;10.642;2022-09-20T00:20:46;7.40;99.90
58513;DHT22;44302;47.914;10.642;2022-09-20T00:23:12;7.40;99.90
58513;DHT22;44302;47.914;10.642;2022-09-20T00:25:38;7.40;99.90
58513;DHT22;44302;47.914;10.642;2022-09-20T05:50:28;5.30;99.90
58513;DHT22;44302;47.914;10.642;2022-09-20T05:53:06;5.40;99.90
58513;DHT22;44302;47.914;10.642;2022-09-20T07:05:30;7.50;99.90
58513;DHT22;44302;47.914;10.642;2022-09-20T07:07:59;7.50;99.90
58513;DHT22;44302;47.914;10.642;2022-09-20T07:10:26;7.50;99.90
58513;DHT22;44302;47.914;10.642;2022-09-20T07:12:59;7.60;99.90
58513;DHT22;44302;47.914;10.642;2022-09-20T07:15:26;7.70;99.90
58513;DHT22;44302;47.914;10.642;2022-09-20T07:17:53;7.90;99.90
58513;DHT22;44302;47.914;10.642;2022-09-20T07:20:19;8.00;99.90
58513;DHT22;44302;47.914;10.642;2022-09-20T07:22:45;8.10;99.90
58513;DHT22;44302;47.914;10.642;2022-09-20T07:25:11;8.20;99.90
58513;DHT22;44302;47.914;10.642;2022-09-20T07:27:36;8.30;99.90
58513;DHT22;44302;47.914;10.642;2022-09-20T07:30:04;8.50;99.90
58513;DHT22;44302;47.914;10.642;2022-09-20T07:32:30;8.70;99.90
58513;DHT22;44302;47.914;10.642;2022-09-20T07:34:56;9.00;99.90
58513;DHT22;44302;47.914;10.642;2022-09-20T07:37:21;9.20;99.90
58513;DHT22;44302;47.914;10.642;2022-09-20T07:39:47;9.60;99.90
58513;DHT22;44302;47.914;10.642;2022-09-20T07:42:13;9.90;99.90
58513;DHT22;44302;47.914;10.642;2022-09-20T07:44:39;10.20;99.90
58513;DHT22;44302;47.914;10.642;2022-09-20T07:47:08;10.50;99.90
58513;DHT22;44302;47.914;10.642;2022-09-20T07:49:38;10.70;99.90
58513;DHT22;44302;47.914;10.642;2022-09-20T07:52:04;10.70;99.90
58513;DHT22;44302;47.914;10.642;2022-09-20T07:54:30;10.60;99.90
58513;DHT22;44302;47.914;10.642;2022-09-20T07:56:56;10.60;99.90
58513;DHT22;44302;47.914;10.642;2022-09-20T07:59:21;10.80;99.90
58513;DHT22;44302;47.914;10.642;2022-09-20T08:01:47;11.10;99.90
58513;DHT22;44302;47.914;10.642;2022-09-20T08:04:13;11.30;99.90
58513;DHT22;44302;47.914;10.642;2022-09-20T08:06:41;11.10;99.90
58513;DHT22;44302;47.914;10.642;2022-09-20T08:09:08;10.90;99.90
58513;DHT22;44302;47.914;10.642;2022-09-20T08:11:34;11.20;99.90
58513;DHT22;44302;47.914;10.642;2022-09-20T08:14:01;11.50;99.90
58513;DHT22;44302;47.914;10.642;2022-09-20T08:16:28;11.70;99.90
58513;DHT22;44302;47.914;10.642;2022-09-20T08:18:59;11.70;99.90
58513;DHT22;44302;47.914;10.642;2022-09-20T08:21:28;11.40;99.90
58513;DHT22;44302;47.914;10.642;2022-09-20T08:23:55;11.20;99.90
58513;DHT22;44302;47.914;10.642;2022-09-20T08:26:22;11.10;99.90
58513;DHT22;44302;47.914;10.642;2022-09-20T08:28:52;11.00;99.90
58513;DHT22;44302;47.914;10.642;2022-09-20T08:31:20;11.00;99.90
58513;DHT22;44302;47.914;10.642;2022-09-20T08:33:47;11.00;99.90
58513;DHT22;44302;47.914;10.642;2022-09-20T08:36:16;11.10;99.90
58513;DHT22;44302;47.914;10.642;2022-09-20T08:38:43;11.10;99.90
58513;DHT22;44302;47.914;10.642;2022-09-20T08:41:20;11.00;99.90
58513;DHT22;44302;47.914;10.642;2022-09-20T08:44:09;11.00;99.90
58513;DHT22;44302;47.914;10.642;2022-09-20T08:46:39;11.10;99.90
58513;DHT22;44302;47.914;10.642;2022-09-20T08:49:07;11.10;99.90
58513;DHT22;44302;47.914;10.642;2022-09-20T08:51:37;11.10;99.90
58513;DHT22;44302;47.914;10.642;2022-09-20T08:54:06;10.90;99.90
58513;DHT22;44302;47.914;10.642;2022-09-20T08:56:41;11.00;99.90
58513;DHT22;44302;47.914;10.642;2022-09-20T08:59:14;10.90;99.90
58513;DHT22;44302;47.914;10.642;2022-09-20T09:01:40;10.80;99.90
58513;DHT22;44302;47.914;10.642;2022-09-20T09:06:41;11.00;99.90
58513;DHT22;44302;47.914;10.642;2022-09-20T09:09:17;11.00;99.90
58513;DHT22;44302;47.914;10.642;2022-09-20T09:11:44;10.90;99.90
58513;DHT22;44302;47.914;10.642;2022-09-20T09:14:15;10.90;99.90
58513;DHT22;44302;47.914;10.642;2022-09-20T09:17:03;10.70;99.90
58513;DHT22;44302;47.914;10.642;2022-09-20T09:19:31;10.90;99.90
58513;DHT22;44302;47.914;10.642;2022-09-20T09:22:03;10.90;99.90
58513;DHT22;44302;47.914;10.642;2022-09-20T09:24:29;11.00;99.90
58513;DHT22;44302;47.914;10.642;2022-09-20T09:27:14;10.90;99.90
58513;DHT22;44302;47.914;10.642;2022-09-20T09:29:52;10.90;99.90
58513;DHT22;44302;47.914;10.642;2022-09-20T09:32:25;10.70;99.90
58513;DHT22;44302;47.914;10.642;2022-09-20T09:34:54;10.70;99.90
58513;DHT22;44302;47.914;10.642;2022-09-20T09:37:30;10.70;99.90
58513;DHT22;44302;47.914;10.642;2022-09-20T09:40:14;10.80;99.90
58513;DHT22;44302;47.914;10.642;2022-09-20T09:42:55;10.70;99.90
58513;DHT22;44302;47.914;10.642;2022-09-20T09:45:33;10.60;99.90
58513;DHT22;44302;47.914;10.642;2022-09-20T09:48:25;10.50;99.90
58513;DHT22;44302;47.914;10.642;2022-09-20T09:53:32;11.00;99.90
58513;DHT22;44302;47.914;10.642;2022-09-20T10:02:13;12.90;99.90
58513;DHT22;44302;47.914;10.642;2022-09-20T10:07:42;12.90;99.90
58513;DHT22;44302;47.914;10.642;2022-09-20T10:10:29;13.00;99.90
58513;DHT22;44302;47.914;10.642;2022-09-20T10:13:02;13.30;99.90
58513;DHT22;44302;47.914;10.642;2022-09-20T10:21:43;13.40;99.90
58513;DHT22;44302;47.914;10.642;2022-09-20T10:24:25;13.50;99.90
58513;DHT22;44302;47.914;10.642;2022-09-20T10:48:49;13.50;99.90
58513;DHT22;44302;47.914;10.642;2022-09-20T11:08:25;12.00;99.90
58513;DHT22;44302;47.914;10.642;2022-09-20T11:10:54;12.10;99.90
58513;DHT22;44302;47.914;10.642;2022-09-20T11:19:26;12.40;99.90
58513;DHT22;44302;47.914;10.642;2022-09-20T11:25:24;12.50;99.90
58513;DHT22;44302;47.914;10.642;2022-09-20T11:28:04;12.40;99.90
58513;DHT22;44302;47.914;10.642;2022-09-20T11:30:46;12.20;99.90
58513;DHT22;44302;47.914;10.642;2022-09-20T11:33:26;12.10;99.90
58513;DHT22;44302;47.914;10.642;2022-09-20T11:36:06;12.30;99.90
58513;DHT22;44302;47.914;10.642;2022-09-20T11:41:13;12.60;99.90
58513;DHT22;44302;47.914;10.642;2022-09-20T11:43:41;13.00;99.90
58513;DHT22;44302;47.914;10.642;2022-09-20T11:46:12;13.80;99.90
58513;DHT22;44302;47.914;10.642;2022-09-20T11:48:45;14.50;99.90
58513;DHT22;44302;47.914;10.642;2022-09-20T11:51:44;14.70;99.90
58513;DHT22;44302;47.914;10.642;2022-09-20T11:56:55;13.60;99.90
58513;DHT22;44302;47.914;10.642;2022-09-20T11:59:32;13.30;99.90
58513;DHT22;44302;47.914;10.642;2022-09-20T12:02:00;13.10;99.90
58513;DHT22;44302;47.914;10.642;2022-09-20T12:04:31;13.20;99.90
58513;DHT22;44302;47.914;10.642;2022-09-20T12:07:14;13.70;99.90
58513;DHT22;44302;47.914;10.642;2022-09-20T12:09:43;14.40;99.90
58513;DHT22;44302;47.914;10.642;2022-09-20T12:28:52;14.00;99.90
58513;DHT22;44302;47.914;10.642;2022-09-20T12:36:25;14.50;99.90
58513;DHT22;44302;47.914;10.642;2022-09-20T12:39:14;14.10;99.90
58513;DHT22;44302;47.914;10.642;2022-09-20T12:41:51;13.80;99.90
58513;DHT22;44302;47.914;10.642;2022-09-20T12:58:30;18.10;99.90
58513;DHT22;44302;47.914;10.642;2022-09-20T13:11:54;19.50;99.90
58513;DHT22;44302;47.914;10.642;2022-09-20T13:14:29;19.30;99.90
58513;DHT22;44302;47.914;10.642;2022-09-20T13:19:43;19.30;99.90
58513;DHT22;44302;47.914;10.642;2022-09-20T13:24:52;19.30;99.90
58513;DHT22;44302;47.914;10.642;2022-09-20T13:32:42;18.40;99.90
58513;DHT22;44302;47.914;10.642;2022-09-20T13:37:50;19.00;99.90
58513;DHT22;44302;47.914;10.642;2022-09-20T13:43:03;17.80;99.90
58513;DHT22;44302;47.914;10.642;2022-09-20T13:45:30;16.80;99.90
58513;DHT22;44302;47.914;10.642;2022-09-20T13:47:59;17.40;99.90
58513;DHT22;44302;47.914;10.642;2022-09-20T13:50:31;18.10;98.60
58513;DHT22;44302;47.914;10.642;2022-09-20T13:52:59;17.50;99.00
58513;DHT22;44302;47.914;10.642;2022-09-20T13:55:34;18.30;99.90
58513;DHT22;44302;47.914;10.642;2022-09-20T13:58:06;18.90;99.90
58513;DHT22;44302;47.914;10.642;2022-09-20T14:00:35;18.70;98.80
58513;DHT22;44302;47.914;10.642;2022-09-20T14:03:03;16.70;98.50
58513;DHT22;44302;47.914;10.642;2022-09-20T14:05:30;16.20;99.80
58513;DHT22;44302;47.914;10.642;2022-09-20T14:07:56;15.40;99.90
58513;DHT22;44302;47.914;10.642;2022-09-20T14:10:34;15.00;99.90
58513;DHT22;44302;47.914;10.642;2022-09-20T14:13:05;15.20;99.90
58513;DHT22;44302;47.914;10.642;2022-09-20T14:15:43;15.60;99.90
58513;DHT22;44302;47.914;10.642;2022-09-20T14:18:17;16.80;99.90
58513;DHT22;44302;47.914;10.642;2022-09-20T14:20:44;18.00;99.90
58513;DHT22;44302;47.914;10.642;2022-09-20T14:23:21;18.70;98.20
58513;DHT22;44302;47.914;10.642;2022-09-20T14:26:07;19.30;97.80
58513;DHT22;44302;47.914;10.642;2022-09-20T14:28:45;18.90;97.60
58513;DHT22;44302;47.914;10.642;2022-09-20T14:31:23;18.50;96.60
58513;DHT22;44302;47.914;10.642;2022-09-20T14:33:53;18.30;97.40
58513;DHT22;44302;47.914;10.642;2022-09-20T14:36:25;18.30;96.20
58513;DHT22;44302;47.914;10.642;2022-09-20T14:39:00;18.20;95.00
58513;DHT22;44302;47.914;10.642;2022-09-20T14:41:40;18.10;96.40
58513;DHT22;44302;47.914;10.642;2022-09-20T14:44:29;18.20;97.20
58513;DHT22;44302;47.914;10.642;2022-09-20T14:46:55;17.50;95.50
58513;DHT22;44302;47.914;10.642;2022-09-20T14:51:56;17.80;95.30
58513;DHT22;44302;47.914;10.642;2022-09-20T14:54:39;17.70;94.90
58513;DHT22;44302;47.914;10.642;2022-09-20T14:57:05;17.70;95.40
58513;DHT22;44302;47.914;10.642;2022-09-20T14:59:41;17.60;97.20
58513;DHT22;44302;47.914;10.642;2022-09-20T15:04:34;16.30;95.30
58513;DHT22;44302;47.914;10.642;2022-09-20T15:07:04;15.40;96.40
58513;DHT22;44302;47.914;10.642;2022-09-20T15:09:31;15.30;96.50
58513;DHT22;44302;47.914;10.642;2022-09-20T15:12:01;15.20;96.30
58513;DHT22;44302;47.914;10.642;2022-09-20T15:14:27;15.20;96.50
58513;DHT22;44302;47.914;10.642;2022-09-20T15:19:18;15.10;98.00
58513;DHT22;44302;47.914;10.642;2022-09-20T15:21:44;14.80;97.60
58513;DHT22;44302;47.914;10.642;2022-09-20T15:24:10;14.20;96.70
58513;DHT22;44302;47.914;10.642;2022-09-20T15:26:35;13.90;96.50
58513;DHT22;44302;47.914;10.642;2022-09-20T15:31:27;13.50;97.40
58513;DHT22;44302;47.914;10.642;2022-09-20T15:36:19;13.40;99.90
58513;DHT22;44302;47.914;10.642;2022-09-20T15:38:45;13.40;99.90
58513;DHT22;44302;47.914;10.642;2022-09-20T15:41:10;13.30;99.90
58513;DHT22;44302;47.914;10.642;2022-09-20T15:43:37;13.20;99.10
58513;DHT22;44302;47.914;10.642;2022-09-20T15:46:20;13.20;99.60
58513;DHT22;44302;47.914;10.642;2022-09-20T15:48:46;13.10;99.90
58513;DHT22;44302;47.914;10.642;2022-09-20T15:51:12;13.10;99.90
58513;DHT22;44302;47.914;10.642;2022-09-20T15:53:40;13.00;99.90
58513;DHT22;44302;47.914;10.642;2022-09-20T15:56:29;13.00;99.80
58513;DHT22;44302;47.914;10.642;2022-09-20T15:59:00;12.90;99.90
58513;DHT22;44302;47.914;10.642;2022-09-20T16:01:34;12.90;99.90
58513;DHT22;44302;47.914;10.642;2022-09-20T16:04:13;13.00;99.90
58513;DHT22;44302;47.914;10.642;2022-09-20T16:06:41;13.00;99.90
58513;DHT22;44302;47.914;10.642;2022-09-20T16:09:07;12.80;99.90
58513;DHT22;44302;47.914;10.642;2022-09-20T16:11:33;12.70;99.90
58513;DHT22;44302;47.914;10.642;2022-09-20T16:13:59;12.60;99.90
58513;DHT22;44302;47.914;10.642;2022-09-20T16:16:27;12.40;99.90
58513;DHT22;44302;47.914;10.642;2022-09-20T16:18:53;12.20;99.90
58513;DHT22;44302;47.914;10.642;2022-09-20T16:21:39;12.00;99.90
58513;DHT22;44302;47.914;10.642;2022-09-20T16:24:06;11.90;99.90
58513;DHT22;44302;47.914;10.642;2022-09-20T16:26:32;11.80;99.90
58513;DHT22;44302;47.914;10.642;2022-09-20T16:28:59;11.70;99.90
58513;DHT22;44302;47.914;10.642;2022-09-20T16:31:31;11.60;99.90
58513;DHT22;44302;47.914;10.642;2022-09-20T16:34:01;11.40;99.90
58513;DHT22;44302;47.914;10.642;2022-09-20T16:36:28;11.40;99.90
58513;DHT22;44302;47.914;10.642;2022-09-20T16:38:54;11.30;99.90
58513;DHT22;44302;47.914;10.642;2022-09-20T16:41:25;11.30;99.90
58513;DHT22;44302;47.914;10.642;2022-09-20T16:43:51;11.10;99.90
58513;DHT22;44302;47.914;10.642;2022-09-20T16:46:21;11.10;99.90
58513;DHT22;44302;47.914;10.642;2022-09-20T16:48:52;11.10;99.90
58513;DHT22;44302;47.914;10.642;2022-09-20T16:51:23;11.00;99.90
58513;DHT22;44302;47.914;10.642;2022-09-20T16:53:54;11.00;99.90
58513;DHT22;44302;47.914;10.642;2022-09-20T16:56:28;11.00;99.90
58513;DHT22;44302;47.914;10.642;2022-09-20T16:58:55;11.00;99.90
58513;DHT22;44302;47.914;10.642;2022-09-20T17:01:21;10.90;99.90
58513;DHT22;44302;47.914;10.642;2022-09-20T17:03:47;10.80;99.90
58513;DHT22;44302;47.914;10.642;2022-09-20T17:06:15;10.80;99.90
58513;DHT22;44302;47.914;10.642;2022-09-20T17:08:42;10.70;99.90
58513;DHT22;44302;47.914;10.642;2022-09-20T17:11:16;10.60;99.90
58513;DHT22;44302;47.914;10.642;2022-09-20T17:13:44;10.60;99.90
58513;DHT22;44302;47.914;10.642;2022-09-20T17:16:20;10.50;99.90
58513;DHT22;44302;47.914;10.642;2022-09-20T17:18:55;10.40;99.90
58513;DHT22;44302;47.914;10.642;2022-09-20T17:21:21;10.40;99.90
58513;DHT22;44302;47.914;10.642;2022-09-20T17:23:50;10.30;99.90
58513;DHT22;44302;47.914;10.642;2022-09-20T17:26:24;10.20;99.90
58513;DHT22;44302;47.914;10.642;2022-09-20T17:28:52;10.10;99.90
58513;DHT22;44302;47.914;10.642;2022-09-20T17:31:21;10.10;99.90
58513;DHT22;44302;47.914;10.642;2022-09-20T17:33:49;10.00;99.90
58513;DHT22;44302;47.914;10.642;2022-09-20T17:36:17;9.90;99.90
58513;DHT22;44302;47.914;10.642;2022-09-20T17:38:44;9.80;99.90
58513;DHT22;44302;47.914;10.642;2022-09-20T17:41:17;9.80;99.90
58513;DHT22;44302;47.914;10.642;2022-09-20T17:43:44;9.70;99.90
58513;DHT22;44302;47.914;10.642;2022-09-20T17:46:22;9.70;99.90
58513;DHT22;44302;47.914;10.642;2022-09-20T17:48:54;9.60;99.90
58513;DHT22;44302;47.914;10.642;2022-09-20T17:51:24;9.50;99.90
58513;DHT22;44302;47.914;10.642;2022-09-20T17:53:51;9.50;99.90
58513;DHT22;44302;47.914;10.642;2022-09-20T17:56:17;9.40;99.90
58513;DHT22;44302;47.914;10.642;2022-09-20T17:58:43;9.30;99.90
58513;DHT22;44302;47.914;10.642;2022-09-20T18:01:14;9.30;99.90
58513;DHT22;44302;47.914;10.642;2022-09-20T18:03:42;9.20;99.90
58513;DHT22;44302;47.914;10.642;2022-09-20T18:06:23;9.20;99.90
58513;DHT22;44302;47.914;10.642;2022-09-20T18:08:58;9.10;99.90
58513;DHT22;44302;47.914;10.642;2022-09-20T18:11:31;9.00;99.90
58513;DHT22;44302;47.914;10.642;2022-09-20T18:13:58;9.00;99.90
58513;DHT22;44302;47.914;10.642;2022-09-20T18:16:24;8.90;99.90
58513;DHT22;44302;47.914;10.642;2022-09-20T18:18:50;8.90;99.90
58513;DHT22;44302;47.914;10.642;2022-09-20T18:23:44;8.80;99.90
58513;DHT22;44302;47.914;10.642;2022-09-20T18:26:12;8.80;99.90
58513;DHT22;44302;47.914;10.642;2022-09-20T18:29:12;8.70;99.90
58513;DHT22;44302;47.914;10.642;2022-09-20T18:34:17;8.60;99.90
58513;DHT22;44302;47.914;10.642;2022-09-20T18:36:50;8.50;99.90
58513;DHT22;44302;47.914;10.642;2022-09-20T18:39:20;8.50;99.90
58513;DHT22;44302;47.914;10.642;2022-09-20T18:41:46;8.40;99.90
58513;DHT22;44302;47.914;10.642;2022-09-20T18:44:15;8.30;99.90
58513;DHT22;44302;47.914;10.642;2022-09-20T18:46:42;8.30;99.90
58513;DHT22;44302;47.914;10.642;2022-09-20T18:49:09;8.20;99.90
58513;DHT22;44302;47.914;10.642;2022-09-20T18:51:37;8.20;99.90
58513;DHT22;44302;47.914;10.642;2022-09-20T18:54:03;8.20;99.90
58513;DHT22;44302;47.914;10.642;2022-09-20T18:56:31;8.10;99.90
58513;DHT22;44302;47.914;10.642;2022-09-20T18:59:00;8.10;99.90
58513;DHT22;44302;47.914;10.642;2022-09-20T19:04:26;8.00;99.90
58513;DHT22;44302;47.914;10.642;2022-09-20T19:07:15;8.00;99.90
58513;DHT22;44302;47.914;10.642;2022-09-20T19:15:35;8.00;99.90
58513;DHT22;44302;47.914;10.642;2022-09-20T19:26:13;8.10;99.90
58513;DHT22;44302;47.914;10.642;2022-09-20T19:28:40;8.20;99.90
58513;DHT22;44302;47.914;10.642;2022-09-20T19:31:13;8.20;99.90
58513;DHT22;44302;47.914;10.642;2022-09-20T19:33:44;8.20;99.90
58513;DHT22;44302;47.914;10.642;2022-09-20T19:36:14;8.20;99.90
58513;DHT22;44302;47.914;10.642;2022-09-20T19:41:49;8.00;99.90
58513;DHT22;44302;47.914;10.642;2022-09-20T19:45:00;8.00;99.90
58513;DHT22;44302;47.914;10.642;2022-09-20T19:47:42;8.00;99.90
58513;DHT22;44302;47.914;10.642;2022-09-20T19:50:30;8.00;99.90
58513;DHT22;44302;47.914;10.642;2022-09-20T19:52:59;7.90;99.90
58513;DHT22;44302;47.914;10.642;2022-09-20T19:55:33;7.90;99.90
58513;DHT22;44302;47.914;10.642;2022-09-20T19:57:59;7.90;99.90
58513;DHT22;44302;47.914;10.642;2022-09-20T20:00:26;8.00;99.90
58513;DHT22;44302;47.914;10.642;2022-09-20T20:02:52;7.90;99.90
58513;DHT22;44302;47.914;10.642;2022-09-20T20:05:20;8.00;99.90
58513;DHT22;44302;47.914;10.642;2022-09-20T20:10:56;8.00;99.90
58513;DHT22;44302;47.914;10.642;2022-09-20T20:13:59;7.90;99.90
58513;DHT22;44302;47.914;10.642;2022-09-20T20:16:41;8.00;99.90
58513;DHT22;44302;47.914;10.642;2022-09-20T20:28:12;7.90;99.90
58513;DHT22;44302;47.914;10.642;2022-09-20T20:30:37;7.80;99.90
58513;DHT22;44302;47.914;10.642;2022-09-20T20:33:03;7.80;99.90
58513;DHT22;44302;47.914;10.642;2022-09-20T20:35:30;7.70;99.90
58513;DHT22;44302;47.914;10.642;2022-09-20T20:37:56;7.70;99.90
58513;DHT22;44302;47.914;10.642;2022-09-20T20:40:21;7.60;99.90
58513;DHT22;44302;47.914;10.642;2022-09-20T20:42:47;7.60;99.90
58513;DHT22;44302;47.914;10.642;2022-09-20T20:45:16;7.60;99.90
58513;DHT22;44302;47.914;10.642;2022-09-20T20:47:44;7.50;99.90
58513;DHT22;44302;47.914;10.642;2022-09-20T20:50:11;7.50;99.90
58513;DHT22;44302;47.914;10.642;2022-09-20T20:52:37;7.50;99.90
58513;DHT22;44302;47.914;10.642;2022-09-20T20:55:03;7.50;99.90
58513;DHT22;44302;47.914;10.642;2022-09-20T20:57:30;7.40;99.90
58513;DHT22;44302;47.914;10.642;2022-09-20T20:59:56;7.40;99.90
58513;DHT22;44302;47.914;10.642;2022-09-20T21:02:21;7.30;99.90
58513;DHT22;44302;47.914;10.642;2022-09-20T21:04:47;7.30;99.90
58513;DHT22;44302;47.914;10.642;2022-09-20T21:07:13;7.30;99.90
58513;DHT22;44302;47.914;10.642;2022-09-20T21:09:38;7.30;99.90
58513;DHT22;44302;47.914;10.642;2022-09-20T21:12:04;7.30;99.90
58513;DHT22;44302;47.914;10.642;2022-09-20T21:14:30;7.20;99.90
58513;DHT22;44302;47.914;10.642;2022-09-20T21:16:58;7.20;99.90
58513;DHT22;44302;47.914;10.642;2022-09-20T21:19:25;7.10;99.90
58513;DHT22;44302;47.914;10.642;2022-09-20T21:21:51;7.10;99.90
58513;DHT22;44302;47.914;10.642;2022-09-20T21:24:16;7.10;99.90
58513;DHT22;44302;47.914;10.642;2022-09-20T21:26:42;7.00;99.90
58513;DHT22;44302;47.914;10.642;2022-09-20T21:29:10;7.00;99.90
58513;DHT22;44302;47.914;10.642;2022-09-20T21:31:37;7.00;99.90
58513;DHT22;44302;47.914;10.642;2022-09-20T21:34:05;7.00;99.90
58513;DHT22;44302;47.914;10.642;2022-09-20T21:36:31;7.00;99.90
58513;DHT22;44302;47.914;10.642;2022-09-20T21:38:58;7.00;99.90
58513;DHT22;44302;47.914;10.642;2022-09-20T21:41:26;7.10;99.90
58513;DHT22;44302;47.914;10.642;2022-09-20T21:43:55;7.20;99.90
58513;DHT22;44302;47.914;10.642;2022-09-20T21:46:26;7.20;99.90
58513;DHT22;44302;47.914;10.642;2022-09-20T21:48:53;7.30;99.90
58513;DHT22;44302;47.914;10.642;2022-09-20T21:51:20;7.30;99.90
58513;DHT22;44302;47.914;10.642;2022-09-20T21:53:47;7.30;99.90
58513;DHT22;44302;47.914;10.642;2022-09-20T21:56:15;7.30;99.90
58513;DHT22;44302;47.914;10.642;2022-09-20T21:58:45;7.40;99.90
58513;DHT22;44302;47.914;10.642;2022-09-20T22:01:13;7.40;99.90
58513;DHT22;44302;47.914;10.642;2022-09-20T22:03:47;7.40;99.90
58513;DHT22;44302;47.914;10.642;2022-09-20T22:06:18;7.30;99.90
58513;DHT22;44302;47.914;10.642;2022-09-20T22:08:52;7.30;99.90
58513;DHT22;44302;47.914;10.642;2022-09-20T22:11:20;7.20;99.90
58513;DHT22;44302;47.914;10.642;2022-09-20T22:13:47;7.20;99.90
58513;DHT22;44302;47.914;10.642;2022-09-20T22:16:16;7.20;99.90
58513;DHT22;44302;47.914;10.642;2022-09-20T22:18:42;7.20;99.90
58513;DHT22;44302;47.914;10.642;2022-09-20T22:21:10;7.20;99.90
58513;DHT22;44302;47.914;10.642;2022-09-20T22:23:37;7.20;99.90
58513;DHT22;44302;47.914;10.642;2022-09-20T22:26:06;7.10;99.90
58513;DHT22;44302;47.914;10.642;2022-09-20T22:28:31;7.00;99.90
58513;DHT22;44302;47.914;10.642;2022-09-20T22:31:06;6.90;99.90
58513;DHT22;44302;47.914;10.642;2022-09-20T22:33:34;6.80;99.90
58513;DHT22;44302;47.914;10.642;2022-09-20T22:36:00;6.80;99.90
58513;DHT22;44302;47.914;10.642;2022-09-20T22:38:29;6.80;99.90
58513;DHT22;44302;47.914;10.642;2022-09-20T22:40:56;6.70;99.90
58513;DHT22;44302;47.914;10.642;2022-09-20T22:43:22;6.70;99.90
58513;DHT22;44302;47.914;10.642;2022-09-20T22:45:48;6.70;99.90
58513;DHT22;44302;47.914;10.642;2022-09-20T22:48:14;6.70;99.90
58513;DHT22;44302;47.914;10.642;2022-09-20T22:50:40;6.70;99.90
58513;DHT22;44302;47.914;10.642;2022-09-20T22:53:06;6.70;99.90
58513;DHT22;44302;47.914;10.642;2022-09-20T22:55:32;6.80;99.90
58513;DHT22;44302;47.914;10.642;2022-09-20T22:57:57;6.80;99.90
58513;DHT22;44302;47.914;10.642;2022-09-20T23:00:23;6.80;99.90
58513;DHT22;44302;47.914;10.642;2022-09-20T23:02:49;6.90;99.90
58513;DHT22;44302;47.914;10.642;2022-09-20T23:05:15;6.90;99.90
58513;DHT22;44302;47.914;10.642;2022-09-20T23:07:42;6.90;99.90
58513;DHT22;44302;47.914;10.642;2022-09-20T23:10:08;6.90;99.90
58513;DHT22;44302;47.914;10.642;2022-09-20T23:12:34;6.90;99.90
58513;DHT22;44302;47.914;10.642;2022-09-20T23:14:59;6.90;99.90
58513;DHT22;44302;47.914;10.642;2022-09-20T23:17:25;6.90;99.90
58513;DHT22;44302;47.914;10.642;2022-09-20T23:19:51;6.90;99.90
58513;DHT22;44302;47.914;10.642;2022-09-20T23:22:17;6.80;99.90
58513;DHT22;44302;47.914;10.642;2022-09-20T23:24:42;6.80;99.90
58513;DHT22;44302;47.914;10.642;2022-09-20T23:27:09;6.80;99.90
58513;DHT22;44302;47.914;10.642;2022-09-20T23:29:35;6.80;99.90
58513;DHT22;44302;47.914;10.642;2022-09-20T23:32:00;6.70;99.90
58513;DHT22;44302;47.914;10.642;2022-09-20T23:34:26;6.70;99.90
58513;DHT22;44302;47.914;10.642;2022-09-20T23:36:52;6.60;99.90
58513;DHT22;44302;47.914;10.642;2022-09-20T23:39:17;6.60;99.90
58513;DHT22;44302;47.914;10.642;2022-09-20T23:41:43;6.50;99.90
58513;DHT22;44302;47.914;10.642;2022-09-20T23:44:09;6.40;99.90
58513;DHT22;44302;47.914;10.642;2022-09-20T23:46:36;6.40;99.90
58513;DHT22;44302;47.914;10.642;2022-09-20T23:49:03;6.40;99.90
58513;DHT22;44302;47.914;10.642;2022-09-20T23:51:29;6.30;99.90
58513;DHT22;44302;47.914;10.642;2022-09-20T23:53:55;6.20;99.90
58513;DHT22;44302;47.914;10.642;2022-09-20T23:56:21;6.20;99.90
58513;DHT22;44302;47.914;10.642;2022-09-20T23:58:48;6.20;99.90
